sensor_id;sensor_type;location;lat;lon;timestamp;P1;durP1;ratioP1;P2;durP2;ratioP2
21890;SDS011;11110;52.386;16.940;2022-12-16T00:01:55;104.13;;;41.30;;
21890;SDS011;11110;52.386;16.940;2022-12-16T00:04:24;106.30;;;39.20;;
21890;SDS011;11110;52.386;16.940;2022-12-16T00:06:53;112.03;;;41.53;;
21890;SDS011;11110;52.386;16.940;2022-12-16T00:09:21;94.83;;;41.07;;
21890;SDS011;11110;52.386;16.940;2022-12-16T00:11:49;103.77;;;41.77;;
21890;SDS011;11110;52.386;16.940;2022-12-16T00:14:20;99.90;;;39.73;;
21890;SDS011;11110;52.386;16.940;2022-12-16T00:16:48;105.47;;;41.37;;
21890;SDS011;11110;52.386;16.940;2022-12-16T00:19:18;100.90;;;41.57;;
21890;SDS011;11110;52.386;16.940;2022-12-16T00:21:47;103.63;;;41.50;;
21890;SDS011;11110;52.386;16.940;2022-12-16T00:24:17;104.93;;;41.23;;
21890;SDS011;11110;52.386;16.940;2022-12-16T00:26:46;96.93;;;40.30;;
21890;SDS011;11110;52.386;16.940;2022-12-16T00:29:14;103.00;;;40.57;;
21890;SDS011;11110;52.386;16.940;2022-12-16T00:31:43;102.80;;;42.43;;
21890;SDS011;11110;52.386;16.940;2022-12-16T00:34:13;92.13;;;39.53;;
21890;SDS011;11110;52.386;16.940;2022-12-16T00:36:44;90.07;;;40.90;;
21890;SDS011;11110;52.386;16.940;2022-12-16T00:39:12;98.97;;;39.70;;
21890;SDS011;11110;52.386;16.940;2022-12-16T00:41:41;106.67;;;41.90;;
21890;SDS011;11110;52.386;16.940;2022-12-16T00:44:10;107.93;;;44.00;;
21890;SDS011;11110;52.386;16.940;2022-12-16T00:46:38;109.80;;;44.50;;
21890;SDS011;11110;52.386;16.940;2022-12-16T00:49:07;113.33;;;43.50;;
21890;SDS011;11110;52.386;16.940;2022-12-16T00:51:35;100.40;;;42.33;;
21890;SDS011;11110;52.386;16.940;2022-12-16T00:54:05;108.53;;;43.20;;
21890;SDS011;11110;52.386;16.940;2022-12-16T00:56:34;109.83;;;43.53;;
21890;SDS011;11110;52.386;16.940;2022-12-16T00:59:03;84.77;;;38.97;;
21890;SDS011;11110;52.386;16.940;2022-12-16T01:01:31;101.07;;;41.00;;
21890;SDS011;11110;52.386;16.940;2022-12-16T01:04:00;100.67;;;40.70;;
21890;SDS011;11110;52.386;16.940;2022-12-16T01:06:28;107.80;;;40.37;;
21890;SDS011;11110;52.386;16.940;2022-12-16T01:08:57;98.67;;;40.33;;
21890;SDS011;11110;52.386;16.940;2022-12-16T01:11:27;104.40;;;40.20;;
21890;SDS011;11110;52.386;16.940;2022-12-16T01:13:55;95.90;;;40.03;;
21890;SDS011;11110;52.386;16.940;2022-12-16T01:16:23;99.27;;;39.50;;
21890;SDS011;11110;52.386;16.940;2022-12-16T01:18:52;101.17;;;39.03;;
21890;SDS011;11110;52.386;16.940;2022-12-16T01:21:21;103.33;;;39.27;;
21890;SDS011;11110;52.386;16.940;2022-12-16T01:23:50;100.27;;;41.10;;
21890;SDS011;11110;52.386;16.940;2022-12-16T01:26:20;103.47;;;39.80;;
21890;SDS011;11110;52.386;16.940;2022-12-16T01:28:51;104.40;;;41.63;;
21890;SDS011;11110;52.386;16.940;2022-12-16T01:31:20;97.63;;;41.07;;
21890;SDS011;11110;52.386;16.940;2022-12-16T01:33:50;94.30;;;39.97;;
21890;SDS011;11110;52.386;16.940;2022-12-16T01:36:19;100.60;;;39.83;;
21890;SDS011;11110;52.386;16.940;2022-12-16T01:38:48;98.47;;;37.47;;
21890;SDS011;11110;52.386;16.940;2022-12-16T01:41:17;101.07;;;40.33;;
21890;SDS011;11110;52.386;16.940;2022-12-16T01:43:46;97.73;;;37.97;;
21890;SDS011;11110;52.386;16.940;2022-12-16T01:46:17;94.73;;;37.47;;
21890;SDS011;11110;52.386;16.940;2022-12-16T01:48:49;105.77;;;39.87;;
21890;SDS011;11110;52.386;16.940;2022-12-16T01:51:22;92.97;;;38.80;;
21890;SDS011;11110;52.386;16.940;2022-12-16T01:53:54;97.70;;;37.67;;
21890;SDS011;11110;52.386;16.940;2022-12-16T01:56:26;103.30;;;39.83;;
21890;SDS011;11110;52.386;16.940;2022-12-16T01:58:58;100.30;;;38.83;;
21890;SDS011;11110;52.386;16.940;2022-12-16T02:01:29;88.77;;;37.00;;
21890;SDS011;11110;52.386;16.940;2022-12-16T02:03:59;87.50;;;35.03;;
21890;SDS011;11110;52.386;16.940;2022-12-16T02:06:29;84.40;;;33.80;;
21890;SDS011;11110;52.386;16.940;2022-12-16T02:08:59;85.67;;;34.80;;
21890;SDS011;11110;52.386;16.940;2022-12-16T02:11:36;92.33;;;34.80;;
21890;SDS011;11110;52.386;16.940;2022-12-16T02:17:26;97.23;;;38.43;;
21890;SDS011;11110;52.386;16.940;2022-12-16T02:23:06;99.13;;;38.83;;
21890;SDS011;11110;52.386;16.940;2022-12-16T02:25:57;87.30;;;37.20;;
21890;SDS011;11110;52.386;16.940;2022-12-16T02:28:49;94.77;;;36.30;;
21890;SDS011;11110;52.386;16.940;2022-12-16T02:31:35;98.53;;;38.07;;
21890;SDS011;11110;52.386;16.940;2022-12-16T02:34:16;90.53;;;35.10;;
21890;SDS011;11110;52.386;16.940;2022-12-16T02:36:52;94.43;;;36.37;;
21890;SDS011;11110;52.386;16.940;2022-12-16T02:39:32;99.53;;;37.60;;
21890;SDS011;11110;52.386;16.940;2022-12-16T02:42:06;84.97;;;35.93;;
21890;SDS011;11110;52.386;16.940;2022-12-16T02:44:42;99.73;;;37.00;;
21890;SDS011;11110;52.386;16.940;2022-12-16T02:47:17;82.37;;;34.33;;
21890;SDS011;11110;52.386;16.940;2022-12-16T02:49:47;81.50;;;34.90;;
21890;SDS011;11110;52.386;16.940;2022-12-16T02:52:18;81.60;;;33.77;;
21890;SDS011;11110;52.386;16.940;2022-12-16T02:54:48;80.37;;;33.80;;
21890;SDS011;11110;52.386;16.940;2022-12-16T02:57:34;88.03;;;34.43;;
21890;SDS011;11110;52.386;16.940;2022-12-16T03:00:15;84.57;;;32.20;;
21890;SDS011;11110;52.386;16.940;2022-12-16T03:02:50;81.30;;;32.60;;
21890;SDS011;11110;52.386;16.940;2022-12-16T03:05:24;84.83;;;31.67;;
21890;SDS011;11110;52.386;16.940;2022-12-16T03:07:58;81.93;;;32.50;;
21890;SDS011;11110;52.386;16.940;2022-12-16T03:10:31;72.93;;;30.70;;
21890;SDS011;11110;52.386;16.940;2022-12-16T03:13:03;77.37;;;31.63;;
21890;SDS011;11110;52.386;16.940;2022-12-16T03:15:34;78.77;;;33.67;;
21890;SDS011;11110;52.386;16.940;2022-12-16T03:18:06;84.00;;;35.03;;
21890;SDS011;11110;52.386;16.940;2022-12-16T03:20:37;77.37;;;33.50;;
21890;SDS011;11110;52.386;16.940;2022-12-16T03:23:12;80.40;;;32.23;;
21890;SDS011;11110;52.386;16.940;2022-12-16T03:25:46;74.33;;;30.87;;
21890;SDS011;11110;52.386;16.940;2022-12-16T03:28:20;68.33;;;27.87;;
21890;SDS011;11110;52.386;16.940;2022-12-16T03:31:00;76.23;;;30.67;;
21890;SDS011;11110;52.386;16.940;2022-12-16T03:33:36;68.47;;;29.70;;
21890;SDS011;11110;52.386;16.940;2022-12-16T03:36:08;80.60;;;32.67;;
21890;SDS011;11110;52.386;16.940;2022-12-16T03:38:41;73.10;;;27.87;;
21890;SDS011;11110;52.386;16.940;2022-12-16T03:41:12;77.30;;;32.23;;
21890;SDS011;11110;52.386;16.940;2022-12-16T03:43:43;84.97;;;34.07;;
21890;SDS011;11110;52.386;16.940;2022-12-16T03:46:12;72.53;;;32.57;;
21890;SDS011;11110;52.386;16.940;2022-12-16T03:48:47;77.30;;;31.23;;
21890;SDS011;11110;52.386;16.940;2022-12-16T03:51:17;76.53;;;30.63;;
21890;SDS011;11110;52.386;16.940;2022-12-16T03:53:46;84.17;;;33.70;;
21890;SDS011;11110;52.386;16.940;2022-12-16T03:56:14;63.33;;;28.97;;
21890;SDS011;11110;52.386;16.940;2022-12-16T03:58:43;68.33;;;30.27;;
21890;SDS011;11110;52.386;16.940;2022-12-16T04:01:12;76.30;;;28.60;;
21890;SDS011;11110;52.386;16.940;2022-12-16T04:03:41;82.00;;;32.23;;
21890;SDS011;11110;52.386;16.940;2022-12-16T04:06:11;71.60;;;29.83;;
21890;SDS011;11110;52.386;16.940;2022-12-16T04:08:44;62.67;;;27.17;;
21890;SDS011;11110;52.386;16.940;2022-12-16T04:11:13;76.27;;;30.30;;
21890;SDS011;11110;52.386;16.940;2022-12-16T04:13:59;63.80;;;28.43;;
21890;SDS011;11110;52.386;16.940;2022-12-16T04:16:45;79.03;;;31.17;;
21890;SDS011;11110;52.386;16.940;2022-12-16T04:19:32;76.50;;;32.07;;
21890;SDS011;11110;52.386;16.940;2022-12-16T04:22:22;80.33;;;32.33;;
21890;SDS011;11110;52.386;16.940;2022-12-16T04:25:11;84.67;;;31.80;;
21890;SDS011;11110;52.386;16.940;2022-12-16T04:27:43;78.77;;;30.43;;
21890;SDS011;11110;52.386;16.940;2022-12-16T04:30:13;78.53;;;33.20;;
21890;SDS011;11110;52.386;16.940;2022-12-16T04:32:48;67.03;;;30.93;;
21890;SDS011;11110;52.386;16.940;2022-12-16T04:35:38;80.03;;;32.03;;
21890;SDS011;11110;52.386;16.940;2022-12-16T04:38:25;76.97;;;30.17;;
21890;SDS011;11110;52.386;16.940;2022-12-16T04:41:11;76.63;;;33.83;;
21890;SDS011;11110;52.386;16.940;2022-12-16T04:43:58;70.00;;;28.90;;
21890;SDS011;11110;52.386;16.940;2022-12-16T04:46:44;70.33;;;30.27;;
21890;SDS011;11110;52.386;16.940;2022-12-16T04:49:30;73.23;;;29.67;;
21890;SDS011;11110;52.386;16.940;2022-12-16T04:52:17;83.90;;;33.57;;
21890;SDS011;11110;52.386;16.940;2022-12-16T04:55:04;80.93;;;32.80;;
21890;SDS011;11110;52.386;16.940;2022-12-16T04:57:51;78.63;;;30.60;;
21890;SDS011;11110;52.386;16.940;2022-12-16T05:00:37;77.47;;;31.20;;
21890;SDS011;11110;52.386;16.940;2022-12-16T05:03:24;69.77;;;29.37;;
21890;SDS011;11110;52.386;16.940;2022-12-16T05:06:11;75.20;;;32.97;;
21890;SDS011;11110;52.386;16.940;2022-12-16T05:08:57;76.70;;;31.57;;
21890;SDS011;11110;52.386;16.940;2022-12-16T05:11:44;74.43;;;31.60;;
21890;SDS011;11110;52.386;16.940;2022-12-16T05:14:31;72.33;;;32.57;;
21890;SDS011;11110;52.386;16.940;2022-12-16T05:17:17;75.73;;;32.27;;
21890;SDS011;11110;52.386;16.940;2022-12-16T05:20:04;78.53;;;30.10;;
21890;SDS011;11110;52.386;16.940;2022-12-16T05:22:51;74.03;;;31.00;;
21890;SDS011;11110;52.386;16.940;2022-12-16T05:25:40;80.17;;;32.20;;
21890;SDS011;11110;52.386;16.940;2022-12-16T05:28:28;82.77;;;34.17;;
21890;SDS011;11110;52.386;16.940;2022-12-16T05:31:14;67.77;;;28.13;;
21890;SDS011;11110;52.386;16.940;2022-12-16T05:33:56;79.97;;;33.40;;
21890;SDS011;11110;52.386;16.940;2022-12-16T05:36:42;79.40;;;32.23;;
21890;SDS011;11110;52.386;16.940;2022-12-16T05:39:28;72.10;;;31.30;;
21890;SDS011;11110;52.386;16.940;2022-12-16T05:42:14;81.93;;;32.63;;
21890;SDS011;11110;52.386;16.940;2022-12-16T05:45:02;84.33;;;33.97;;
21890;SDS011;11110;52.386;16.940;2022-12-16T05:47:49;76.03;;;30.93;;
21890;SDS011;11110;52.386;16.940;2022-12-16T05:50:35;91.23;;;33.13;;
21890;SDS011;11110;52.386;16.940;2022-12-16T05:53:21;80.13;;;35.43;;
21890;SDS011;11110;52.386;16.940;2022-12-16T05:56:07;72.13;;;30.20;;
21890;SDS011;11110;52.386;16.940;2022-12-16T05:58:53;71.67;;;32.47;;
21890;SDS011;11110;52.386;16.940;2022-12-16T06:01:51;70.47;;;29.63;;
21890;SDS011;11110;52.386;16.940;2022-12-16T06:04:37;82.87;;;34.50;;
21890;SDS011;11110;52.386;16.940;2022-12-16T06:07:23;76.03;;;31.77;;
21890;SDS011;11110;52.386;16.940;2022-12-16T06:10:09;78.33;;;32.23;;
21890;SDS011;11110;52.386;16.940;2022-12-16T06:12:55;67.03;;;29.37;;
21890;SDS011;11110;52.386;16.940;2022-12-16T06:15:42;71.80;;;31.40;;
21890;SDS011;11110;52.386;16.940;2022-12-16T06:18:35;84.03;;;34.03;;
21890;SDS011;11110;52.386;16.940;2022-12-16T06:21:22;82.33;;;32.27;;
21890;SDS011;11110;52.386;16.940;2022-12-16T06:24:07;82.70;;;32.57;;
21890;SDS011;11110;52.386;16.940;2022-12-16T06:26:53;72.13;;;31.53;;
21890;SDS011;11110;52.386;16.940;2022-12-16T06:29:39;79.00;;;33.07;;
21890;SDS011;11110;52.386;16.940;2022-12-16T06:32:25;84.87;;;32.23;;
21890;SDS011;11110;52.386;16.940;2022-12-16T06:35:12;71.67;;;32.20;;
21890;SDS011;11110;52.386;16.940;2022-12-16T06:37:59;79.37;;;32.07;;
21890;SDS011;11110;52.386;16.940;2022-12-16T06:40:45;96.57;;;34.70;;
21890;SDS011;11110;52.386;16.940;2022-12-16T06:43:31;77.57;;;31.87;;
21890;SDS011;11110;52.386;16.940;2022-12-16T06:46:17;74.63;;;30.97;;
21890;SDS011;11110;52.386;16.940;2022-12-16T06:49:03;75.57;;;30.13;;
21890;SDS011;11110;52.386;16.940;2022-12-16T06:51:51;68.53;;;29.93;;
21890;SDS011;11110;52.386;16.940;2022-12-16T06:54:37;71.73;;;29.40;;
21890;SDS011;11110;52.386;16.940;2022-12-16T06:57:22;78.63;;;34.17;;
21890;SDS011;11110;52.386;16.940;2022-12-16T07:00:09;78.03;;;28.80;;
21890;SDS011;11110;52.386;16.940;2022-12-16T07:02:55;76.17;;;31.13;;
21890;SDS011;11110;52.386;16.940;2022-12-16T07:05:42;73.70;;;29.83;;
21890;SDS011;11110;52.386;16.940;2022-12-16T07:08:29;75.33;;;31.93;;
21890;SDS011;11110;52.386;16.940;2022-12-16T07:11:15;68.83;;;30.43;;
21890;SDS011;11110;52.386;16.940;2022-12-16T07:14:01;76.83;;;31.67;;
21890;SDS011;11110;52.386;16.940;2022-12-16T07:16:47;75.40;;;28.90;;
21890;SDS011;11110;52.386;16.940;2022-12-16T07:19:36;74.63;;;30.50;;
21890;SDS011;11110;52.386;16.940;2022-12-16T07:22:22;78.00;;;30.17;;
21890;SDS011;11110;52.386;16.940;2022-12-16T07:25:10;74.03;;;30.50;;
21890;SDS011;11110;52.386;16.940;2022-12-16T07:27:56;81.97;;;32.50;;
21890;SDS011;11110;52.386;16.940;2022-12-16T07:33:43;65.77;;;27.23;;
21890;SDS011;11110;52.386;16.940;2022-12-16T07:36:29;65.23;;;28.07;;
21890;SDS011;11110;52.386;16.940;2022-12-16T07:39:15;86.80;;;34.60;;
21890;SDS011;11110;52.386;16.940;2022-12-16T07:42:03;77.37;;;31.50;;
21890;SDS011;11110;52.386;16.940;2022-12-16T07:44:49;77.07;;;31.40;;
21890;SDS011;11110;52.386;16.940;2022-12-16T07:47:35;71.90;;;28.97;;
21890;SDS011;11110;52.386;16.940;2022-12-16T07:50:21;73.97;;;30.00;;
21890;SDS011;11110;52.386;16.940;2022-12-16T07:53:06;79.07;;;31.17;;
21890;SDS011;11110;52.386;16.940;2022-12-16T07:55:57;69.93;;;29.63;;
21890;SDS011;11110;52.386;16.940;2022-12-16T07:58:44;80.07;;;30.93;;
21890;SDS011;11110;52.386;16.940;2022-12-16T08:01:30;83.63;;;29.97;;
21890;SDS011;11110;52.386;16.940;2022-12-16T08:04:16;79.27;;;32.07;;
21890;SDS011;11110;52.386;16.940;2022-12-16T08:07:02;67.73;;;28.33;;
21890;SDS011;11110;52.386;16.940;2022-12-16T08:09:48;68.00;;;29.40;;
21890;SDS011;11110;52.386;16.940;2022-12-16T08:12:34;68.07;;;30.50;;
21890;SDS011;11110;52.386;16.940;2022-12-16T08:15:21;78.63;;;32.60;;
21890;SDS011;11110;52.386;16.940;2022-12-16T08:18:07;76.27;;;30.17;;
21890;SDS011;11110;52.386;16.940;2022-12-16T08:20:53;76.90;;;30.63;;
21890;SDS011;11110;52.386;16.940;2022-12-16T08:23:39;72.73;;;30.00;;
21890;SDS011;11110;52.386;16.940;2022-12-16T08:26:25;76.33;;;30.60;;
21890;SDS011;11110;52.386;16.940;2022-12-16T08:29:11;80.17;;;33.37;;
21890;SDS011;11110;52.386;16.940;2022-12-16T08:32:11;79.63;;;32.03;;
21890;SDS011;11110;52.386;16.940;2022-12-16T08:34:57;76.77;;;30.53;;
21890;SDS011;11110;52.386;16.940;2022-12-16T08:37:44;75.63;;;31.33;;
21890;SDS011;11110;52.386;16.940;2022-12-16T08:40:37;71.33;;;32.10;;
21890;SDS011;11110;52.386;16.940;2022-12-16T08:43:24;75.97;;;31.30;;
21890;SDS011;11110;52.386;16.940;2022-12-16T08:46:10;74.30;;;32.33;;
21890;SDS011;11110;52.386;16.940;2022-12-16T08:49:03;69.20;;;29.27;;
21890;SDS011;11110;52.386;16.940;2022-12-16T08:51:50;67.93;;;28.13;;
21890;SDS011;11110;52.386;16.940;2022-12-16T08:54:35;68.87;;;27.97;;
21890;SDS011;11110;52.386;16.940;2022-12-16T08:57:22;79.80;;;32.77;;
21890;SDS011;11110;52.386;16.940;2022-12-16T09:00:08;73.50;;;32.27;;
21890;SDS011;11110;52.386;16.940;2022-12-16T09:02:55;83.70;;;31.97;;
21890;SDS011;11110;52.386;16.940;2022-12-16T09:05:43;77.93;;;30.53;;
21890;SDS011;11110;52.386;16.940;2022-12-16T09:08:30;70.77;;;30.20;;
21890;SDS011;11110;52.386;16.940;2022-12-16T09:11:16;71.47;;;29.87;;
21890;SDS011;11110;52.386;16.940;2022-12-16T09:14:02;65.10;;;30.47;;
21890;SDS011;11110;52.386;16.940;2022-12-16T09:16:48;68.57;;;27.97;;
21890;SDS011;11110;52.386;16.940;2022-12-16T09:19:34;74.40;;;30.70;;
21890;SDS011;11110;52.386;16.940;2022-12-16T09:22:22;73.67;;;29.50;;
21890;SDS011;11110;52.386;16.940;2022-12-16T09:25:08;69.33;;;29.47;;
21890;SDS011;11110;52.386;16.940;2022-12-16T09:27:54;73.53;;;28.57;;
21890;SDS011;11110;52.386;16.940;2022-12-16T09:30:40;84.27;;;32.80;;
21890;SDS011;11110;52.386;16.940;2022-12-16T09:33:26;69.90;;;26.57;;
21890;SDS011;11110;52.386;16.940;2022-12-16T09:36:12;74.97;;;31.03;;
21890;SDS011;11110;52.386;16.940;2022-12-16T09:38:59;85.80;;;30.40;;
21890;SDS011;11110;52.386;16.940;2022-12-16T09:41:49;85.17;;;33.63;;
21890;SDS011;11110;52.386;16.940;2022-12-16T09:44:45;72.17;;;30.40;;
21890;SDS011;11110;52.386;16.940;2022-12-16T09:47:39;77.53;;;30.87;;
21890;SDS011;11110;52.386;16.940;2022-12-16T09:50:31;71.30;;;31.20;;
21890;SDS011;11110;52.386;16.940;2022-12-16T09:53:21;84.80;;;32.77;;
21890;SDS011;11110;52.386;16.940;2022-12-16T09:56:12;78.77;;;31.57;;
21890;SDS011;11110;52.386;16.940;2022-12-16T09:59:18;69.93;;;30.40;;
21890;SDS011;11110;52.386;16.940;2022-12-16T10:02:09;71.07;;;29.33;;
21890;SDS011;11110;52.386;16.940;2022-12-16T10:04:57;77.93;;;31.07;;
21890;SDS011;11110;52.386;16.940;2022-12-16T10:07:45;66.30;;;27.93;;
21890;SDS011;11110;52.386;16.940;2022-12-16T10:10:53;73.67;;;31.20;;
21890;SDS011;11110;52.386;16.940;2022-12-16T10:13:47;71.43;;;30.63;;
21890;SDS011;11110;52.386;16.940;2022-12-16T10:16:46;93.67;;;38.43;;
21890;SDS011;11110;52.386;16.940;2022-12-16T10:19:46;90.80;;;34.97;;
21890;SDS011;11110;52.386;16.940;2022-12-16T10:22:41;72.27;;;31.47;;
21890;SDS011;11110;52.386;16.940;2022-12-16T10:25:33;89.53;;;32.87;;
21890;SDS011;11110;52.386;16.940;2022-12-16T10:28:28;70.63;;;30.23;;
21890;SDS011;11110;52.386;16.940;2022-12-16T10:31:28;83.37;;;31.60;;
21890;SDS011;11110;52.386;16.940;2022-12-16T10:34:15;74.37;;;29.37;;
21890;SDS011;11110;52.386;16.940;2022-12-16T10:37:03;78.53;;;32.07;;
21890;SDS011;11110;52.386;16.940;2022-12-16T10:39:50;80.43;;;32.03;;
21890;SDS011;11110;52.386;16.940;2022-12-16T10:42:42;92.87;;;33.93;;
21890;SDS011;11110;52.386;16.940;2022-12-16T10:45:39;69.10;;;29.57;;
21890;SDS011;11110;52.386;16.940;2022-12-16T10:48:30;77.90;;;31.90;;
21890;SDS011;11110;52.386;16.940;2022-12-16T10:51:23;80.53;;;32.83;;
21890;SDS011;11110;52.386;16.940;2022-12-16T10:57:22;87.40;;;35.37;;
21890;SDS011;11110;52.386;16.940;2022-12-16T11:00:17;79.57;;;32.70;;
21890;SDS011;11110;52.386;16.940;2022-12-16T11:03:17;79.10;;;32.07;;
21890;SDS011;11110;52.386;16.940;2022-12-16T11:06:06;84.97;;;34.73;;
21890;SDS011;11110;52.386;16.940;2022-12-16T11:08:53;90.43;;;36.67;;
21890;SDS011;11110;52.386;16.940;2022-12-16T11:11:39;82.50;;;33.27;;
21890;SDS011;11110;52.386;16.940;2022-12-16T11:14:27;82.63;;;33.77;;
21890;SDS011;11110;52.386;16.940;2022-12-16T11:17:35;89.83;;;34.57;;
21890;SDS011;11110;52.386;16.940;2022-12-16T11:20:22;80.90;;;32.00;;
21890;SDS011;11110;52.386;16.940;2022-12-16T11:23:15;73.30;;;31.20;;
21890;SDS011;11110;52.386;16.940;2022-12-16T11:26:05;86.23;;;34.50;;
21890;SDS011;11110;52.386;16.940;2022-12-16T11:29:08;72.93;;;32.13;;
21890;SDS011;11110;52.386;16.940;2022-12-16T11:32:01;83.60;;;34.03;;
21890;SDS011;11110;52.386;16.940;2022-12-16T11:34:52;81.47;;;33.73;;
21890;SDS011;11110;52.386;16.940;2022-12-16T11:37:41;72.37;;;31.60;;
21890;SDS011;11110;52.386;16.940;2022-12-16T11:40:31;86.63;;;35.03;;
21890;SDS011;11110;52.386;16.940;2022-12-16T11:43:18;82.47;;;32.53;;
21890;SDS011;11110;52.386;16.940;2022-12-16T11:46:07;78.53;;;32.47;;
21890;SDS011;11110;52.386;16.940;2022-12-16T11:48:58;81.03;;;33.73;;
21890;SDS011;11110;52.386;16.940;2022-12-16T11:51:53;82.30;;;34.23;;
21890;SDS011;11110;52.386;16.940;2022-12-16T11:55:03;91.07;;;36.03;;
21890;SDS011;11110;52.386;16.940;2022-12-16T11:58:20;71.20;;;31.37;;
21890;SDS011;11110;52.386;16.940;2022-12-16T12:01:14;88.87;;;35.03;;
21890;SDS011;11110;52.386;16.940;2022-12-16T12:04:10;85.83;;;33.93;;
21890;SDS011;11110;52.386;16.940;2022-12-16T12:07:01;88.60;;;34.60;;
21890;SDS011;11110;52.386;16.940;2022-12-16T12:09:58;83.63;;;34.07;;
21890;SDS011;11110;52.386;16.940;2022-12-16T12:12:52;92.60;;;37.13;;
21890;SDS011;11110;52.386;16.940;2022-12-16T12:15:49;83.50;;;33.73;;
21890;SDS011;11110;52.386;16.940;2022-12-16T12:18:40;83.67;;;34.93;;
21890;SDS011;11110;52.386;16.940;2022-12-16T12:21:43;89.03;;;35.40;;
21890;SDS011;11110;52.386;16.940;2022-12-16T12:24:34;92.37;;;37.47;;
21890;SDS011;11110;52.386;16.940;2022-12-16T12:27:28;84.37;;;35.50;;
21890;SDS011;11110;52.386;16.940;2022-12-16T12:30:20;82.57;;;34.00;;
21890;SDS011;11110;52.386;16.940;2022-12-16T12:33:15;82.83;;;34.53;;
21890;SDS011;11110;52.386;16.940;2022-12-16T12:36:10;86.43;;;35.93;;
21890;SDS011;11110;52.386;16.940;2022-12-16T12:39:08;90.27;;;33.93;;
21890;SDS011;11110;52.386;16.940;2022-12-16T12:42:09;92.23;;;38.43;;
21890;SDS011;11110;52.386;16.940;2022-12-16T12:45:22;84.17;;;34.47;;
21890;SDS011;11110;52.386;16.940;2022-12-16T12:48:25;96.27;;;40.97;;
21890;SDS011;11110;52.386;16.940;2022-12-16T12:51:24;84.90;;;34.30;;
21890;SDS011;11110;52.386;16.940;2022-12-16T12:54:17;83.87;;;33.33;;
21890;SDS011;11110;52.386;16.940;2022-12-16T12:57:11;75.00;;;32.07;;
21890;SDS011;11110;52.386;16.940;2022-12-16T13:00:00;84.73;;;34.67;;
21890;SDS011;11110;52.386;16.940;2022-12-16T13:02:49;81.57;;;33.63;;
21890;SDS011;11110;52.386;16.940;2022-12-16T13:05:42;88.53;;;34.17;;
21890;SDS011;11110;52.386;16.940;2022-12-16T13:08:30;84.00;;;35.53;;
21890;SDS011;11110;52.386;16.940;2022-12-16T13:11:27;86.83;;;36.03;;
21890;SDS011;11110;52.386;16.940;2022-12-16T13:17:35;82.70;;;34.27;;
21890;SDS011;11110;52.386;16.940;2022-12-16T13:21:01;94.97;;;37.80;;
21890;SDS011;11110;52.386;16.940;2022-12-16T13:23:47;89.23;;;34.77;;
21890;SDS011;11110;52.386;16.940;2022-12-16T13:26:33;77.93;;;33.20;;
21890;SDS011;11110;52.386;16.940;2022-12-16T13:29:20;78.60;;;34.13;;
21890;SDS011;11110;52.386;16.940;2022-12-16T13:32:15;78.67;;;34.70;;
21890;SDS011;11110;52.386;16.940;2022-12-16T13:35:04;86.50;;;35.27;;
21890;SDS011;11110;52.386;16.940;2022-12-16T13:38:02;84.40;;;35.83;;
21890;SDS011;11110;52.386;16.940;2022-12-16T13:40:52;86.23;;;36.50;;
21890;SDS011;11110;52.386;16.940;2022-12-16T13:43:44;77.43;;;31.43;;
21890;SDS011;11110;52.386;16.940;2022-12-16T13:46:39;86.97;;;34.93;;
21890;SDS011;11110;52.386;16.940;2022-12-16T13:49:41;91.73;;;37.83;;
21890;SDS011;11110;52.386;16.940;2022-12-16T13:52:38;75.93;;;32.57;;
21890;SDS011;11110;52.386;16.940;2022-12-16T13:55:43;85.70;;;32.00;;
21890;SDS011;11110;52.386;16.940;2022-12-16T13:58:39;77.37;;;32.97;;
21890;SDS011;11110;52.386;16.940;2022-12-16T14:01:32;72.67;;;30.20;;
21890;SDS011;11110;52.386;16.940;2022-12-16T14:04:23;78.50;;;33.17;;
21890;SDS011;11110;52.386;16.940;2022-12-16T14:07:11;78.83;;;33.87;;
21890;SDS011;11110;52.386;16.940;2022-12-16T14:10:00;69.50;;;28.27;;
21890;SDS011;11110;52.386;16.940;2022-12-16T14:12:51;73.57;;;30.37;;
21890;SDS011;11110;52.386;16.940;2022-12-16T14:15:47;70.87;;;28.10;;
21890;SDS011;11110;52.386;16.940;2022-12-16T14:18:43;69.40;;;30.33;;
21890;SDS011;11110;52.386;16.940;2022-12-16T14:21:37;82.43;;;32.87;;
21890;SDS011;11110;52.386;16.940;2022-12-16T14:24:29;79.93;;;33.63;;
21890;SDS011;11110;52.386;16.940;2022-12-16T14:27:16;72.17;;;29.70;;
21890;SDS011;11110;52.386;16.940;2022-12-16T14:30:18;75.87;;;29.87;;
21890;SDS011;11110;52.386;16.940;2022-12-16T14:33:15;71.90;;;29.83;;
21890;SDS011;11110;52.386;16.940;2022-12-16T14:36:16;78.50;;;28.87;;
21890;SDS011;11110;52.386;16.940;2022-12-16T14:39:08;75.83;;;33.20;;
21890;SDS011;11110;52.386;16.940;2022-12-16T14:41:55;74.70;;;31.50;;
21890;SDS011;11110;52.386;16.940;2022-12-16T14:44:43;68.03;;;31.60;;
21890;SDS011;11110;52.386;16.940;2022-12-16T14:47:31;68.17;;;29.87;;
21890;SDS011;11110;52.386;16.940;2022-12-16T14:50:18;81.47;;;33.10;;
21890;SDS011;11110;52.386;16.940;2022-12-16T14:53:12;69.07;;;30.50;;
21890;SDS011;11110;52.386;16.940;2022-12-16T14:56:16;73.10;;;30.80;;
21890;SDS011;11110;52.386;16.940;2022-12-16T14:59:07;71.63;;;29.80;;
21890;SDS011;11110;52.386;16.940;2022-12-16T15:01:57;78.23;;;32.97;;
21890;SDS011;11110;52.386;16.940;2022-12-16T15:04:55;84.13;;;32.40;;
21890;SDS011;11110;52.386;16.940;2022-12-16T15:07:56;77.77;;;31.50;;
21890;SDS011;11110;52.386;16.940;2022-12-16T15:10:47;80.67;;;33.47;;
21890;SDS011;11110;52.386;16.940;2022-12-16T15:13:36;84.63;;;33.97;;
21890;SDS011;11110;52.386;16.940;2022-12-16T15:16:30;69.43;;;30.40;;
21890;SDS011;11110;52.386;16.940;2022-12-16T15:19:20;65.00;;;29.73;;
21890;SDS011;11110;52.386;16.940;2022-12-16T15:22:11;81.63;;;34.70;;
21890;SDS011;11110;52.386;16.940;2022-12-16T15:24:59;80.90;;;33.23;;
21890;SDS011;11110;52.386;16.940;2022-12-16T15:27:52;81.17;;;32.77;;
21890;SDS011;11110;52.386;16.940;2022-12-16T15:30:39;94.27;;;38.07;;
21890;SDS011;11110;52.386;16.940;2022-12-16T15:33:27;91.37;;;34.93;;
21890;SDS011;11110;52.386;16.940;2022-12-16T15:36:24;82.20;;;34.17;;
21890;SDS011;11110;52.386;16.940;2022-12-16T15:39:17;83.40;;;34.93;;
21890;SDS011;11110;52.386;16.940;2022-12-16T15:42:15;77.40;;;32.67;;
21890;SDS011;11110;52.386;16.940;2022-12-16T15:45:04;84.73;;;35.13;;
21890;SDS011;11110;52.386;16.940;2022-12-16T15:48:00;86.83;;;33.23;;
21890;SDS011;11110;52.386;16.940;2022-12-16T15:50:56;88.73;;;36.73;;
21890;SDS011;11110;52.386;16.940;2022-12-16T15:53:42;81.47;;;33.07;;
21890;SDS011;11110;52.386;16.940;2022-12-16T15:56:40;84.87;;;33.63;;
21890;SDS011;11110;52.386;16.940;2022-12-16T15:59:28;106.17;;;46.93;;
21890;SDS011;11110;52.386;16.940;2022-12-16T16:02:43;81.00;;;32.50;;
21890;SDS011;11110;52.386;16.940;2022-12-16T16:05:31;93.50;;;35.00;;
21890;SDS011;11110;52.386;16.940;2022-12-16T16:08:18;77.03;;;32.37;;